createdAt,value
2023-01-17T00:01:35.804Z,97.38
2023-01-17T00:04:17.711Z,99.95
2023-01-17T00:06:59.617Z,100.93
2023-01-17T00:09:41.572Z,103.00
2023-01-17T00:12:08.333Z,97.03
2023-01-17T00:14:35.854Z,104.35
2023-01-17T00:17:02.432Z,107.88
2023-01-17T00:19:44.703Z,102.38
2023-01-17T00:22:30.733Z,94.35
2023-01-17T00:25:14.994Z,106.10
2023-01-17T00:27:38.386Z,109.07
2023-01-17T00:30:02.472Z,101.30
2023-01-17T00:32:29.042Z,104.13
2023-01-17T00:34:52.306Z,112.05
2023-01-17T00:37:15.770Z,113.60
2023-01-17T00:39:39.035Z,107.50
2023-01-17T00:42:02.396Z,94.78
2023-01-17T00:44:44.516Z,99.53
2023-01-17T00:47:26.661Z,97.70
2023-01-17T00:50:10.256Z,82.10
2023-01-17T00:52:52.255Z,94.85
2023-01-17T00:55:34.252Z,87.53
2023-01-17T00:58:17.043Z,84.88
2023-01-17T01:00:58.952Z,84.40
2023-01-17T01:03:40.615Z,88.18
2023-01-17T01:06:25.400Z,87.18
2023-01-17T01:09:07.284Z,94.57
2023-01-17T01:11:49.360Z,84.78
2023-01-17T01:14:31.485Z,86.88
2023-01-17T01:17:13.477Z,90.93
2023-01-17T01:19:56.599Z,91.35
2023-01-17T01:22:40.777Z,93.00
2023-01-17T01:25:23.694Z,91.05
2023-01-17T01:28:05.652Z,91.13
2023-01-17T01:30:47.210Z,86.78
2023-01-17T01:33:20.325Z,82.88
2023-01-17T01:35:45.279Z,88.28
2023-01-17T01:38:11.291Z,89.90
2023-01-17T01:40:35.967Z,84.70
2023-01-17T01:43:05.984Z,89.05
2023-01-17T01:45:32.530Z,84.85
2023-01-17T01:48:03.875Z,90.25
2023-01-17T01:50:29.758Z,86.07
2023-01-17T01:52:57.376Z,88.53
2023-01-17T01:55:27.538Z,88.30
2023-01-17T01:57:56.330Z,90.28
2023-01-17T02:00:25.032Z,91.00
2023-01-17T02:02:51.229Z,90.82
2023-01-17T02:05:18.589Z,80.78
2023-01-17T02:07:49.201Z,84.13
2023-01-17T02:10:14.283Z,89.30
2023-01-17T02:12:40.943Z,94.28
2023-01-17T02:15:09.070Z,89.03
2023-01-17T02:17:45.043Z,88.88
2023-01-17T02:20:44.144Z,89.22
2023-01-17T02:23:50.631Z,98.90
2023-01-17T02:27:06.260Z,88.35
2023-01-17T02:30:03.675Z,98.72
2023-01-17T02:32:42.081Z,105.00
2023-01-17T02:35:15.260Z,99.60
2023-01-17T02:37:50.519Z,95.60
2023-01-17T02:40:20.706Z,100.78
2023-01-17T02:42:49.656Z,100.18
2023-01-17T02:45:17.719Z,102.75
2023-01-17T02:47:43.965Z,86.85
2023-01-17T02:50:13.754Z,91.22
2023-01-17T02:55:31.479Z,150.82
2023-01-17T02:58:27.876Z,118.70
2023-01-17T03:01:03.221Z,288.60
2023-01-17T03:03:35.536Z,193.27
2023-01-17T03:06:11.640Z,233.75
2023-01-17T03:08:36.689Z,219.20
2023-01-17T03:11:01.211Z,228.32
2023-01-17T03:13:26.296Z,110.07
2023-01-17T03:15:51.431Z,91.82
2023-01-17T03:18:17.644Z,96.88
2023-01-17T03:20:44.080Z,90.32
2023-01-17T03:23:09.032Z,97.15
2023-01-17T03:25:33.737Z,99.32
2023-01-17T03:27:58.638Z,91.55
2023-01-17T03:30:24.235Z,116.25
2023-01-17T03:32:49.062Z,109.15
2023-01-17T03:35:13.656Z,103.78
2023-01-17T03:37:39.789Z,103.45
2023-01-17T03:40:04.437Z,521.78
2023-01-17T03:42:30.579Z,307.20
2023-01-17T03:44:55.076Z,209.55
2023-01-17T03:47:19.763Z,290.48
2023-01-17T03:49:44.435Z,143.85
2023-01-17T03:52:09.706Z,130.10
2023-01-17T03:54:35.933Z,120.82
2023-01-17T03:57:00.678Z,117.15
2023-01-17T03:59:25.335Z,125.65
2023-01-17T04:01:50.204Z,164.52
2023-01-17T04:04:15.088Z,171.85
2023-01-17T04:06:39.938Z,172.30
2023-01-17T04:09:04.905Z,136.57
2023-01-17T04:11:31.017Z,132.27
2023-01-17T04:13:58.292Z,109.28
2023-01-17T04:16:27.391Z,106.53
2023-01-17T04:18:52.076Z,122.97
2023-01-17T04:21:16.571Z,111.90
2023-01-17T04:23:41.278Z,101.47
2023-01-17T04:26:06.113Z,115.63
2023-01-17T04:28:32.896Z,126.70
2023-01-17T04:30:59.773Z,127.22
2023-01-17T04:33:24.481Z,107.63
2023-01-17T04:35:49.093Z,126.63
2023-01-17T04:38:13.718Z,94.50
2023-01-17T04:40:38.658Z,96.63
2023-01-17T04:43:03.560Z,100.80
2023-01-17T04:45:29.584Z,110.22
2023-01-17T04:47:54.308Z,93.63
2023-01-17T04:50:19.208Z,89.55
2023-01-17T04:52:43.852Z,89.93
2023-01-17T04:55:09.283Z,86.07
2023-01-17T04:57:34.075Z,86.07
2023-01-17T04:59:59.082Z,88.38
2023-01-17T05:02:25.247Z,89.03
2023-01-17T05:04:49.897Z,90.60
2023-01-17T05:07:14.725Z,98.93
2023-01-17T05:09:39.431Z,91.18
2023-01-17T05:12:04.282Z,97.30
2023-01-17T05:14:30.749Z,93.88
2023-01-17T05:16:55.692Z,99.00
2023-01-17T05:19:21.720Z,100.20
2023-01-17T05:21:46.286Z,105.13
2023-01-17T05:24:11.017Z,107.38
2023-01-17T05:26:35.794Z,108.32
2023-01-17T05:29:00.483Z,112.55
2023-01-17T05:31:25.175Z,117.78
2023-01-17T05:33:49.771Z,111.53
2023-01-17T05:36:16.050Z,116.22
2023-01-17T05:38:41.019Z,124.22
2023-01-17T05:41:06.028Z,118.03
2023-01-17T05:43:30.763Z,117.75
2023-01-17T05:45:55.766Z,118.25
2023-01-17T05:48:20.815Z,126.80
2023-01-17T05:50:45.989Z,118.93
2023-01-17T05:53:14.739Z,123.05
2023-01-17T05:55:40.582Z,121.00
2023-01-17T05:58:05.789Z,105.25
2023-01-17T06:00:33.593Z,129.45
2023-01-17T06:02:59.865Z,117.38
2023-01-17T06:05:25.539Z,127.03
2023-01-17T06:07:50.946Z,124.30
2023-01-17T06:10:18.888Z,129.82
2023-01-17T06:12:44.124Z,119.07
2023-01-17T06:15:10.130Z,114.50
2023-01-17T06:17:35.653Z,110.70
2023-01-17T06:20:00.487Z,129.63
2023-01-17T06:22:25.140Z,129.38
2023-01-17T06:24:49.663Z,124.50
2023-01-17T06:27:15.778Z,150.18
2023-01-17T06:29:40.405Z,119.00
2023-01-17T06:32:05.714Z,108.85
2023-01-17T06:34:30.353Z,116.80
2023-01-17T06:36:54.778Z,108.45
2023-01-17T06:39:19.494Z,109.47
2023-01-17T06:41:44.250Z,115.65
2023-01-17T06:44:10.790Z,111.18
2023-01-17T06:46:35.372Z,101.78
2023-01-17T06:49:03.354Z,107.07
2023-01-17T06:51:27.955Z,109.45
2023-01-17T06:53:52.526Z,117.47
2023-01-17T06:56:18.455Z,125.45
2023-01-17T06:58:43.028Z,159.23
2023-01-17T07:01:10.852Z,114.30
2023-01-17T07:03:35.676Z,105.50
2023-01-17T07:06:03.560Z,112.18
2023-01-17T07:08:28.122Z,108.47
2023-01-17T07:10:53.158Z,110.82
2023-01-17T07:13:18.022Z,108.30
2023-01-17T07:15:42.702Z,111.03
2023-01-17T07:18:09.367Z,99.43
2023-01-17T07:20:34.494Z,104.60
2023-01-17T07:22:59.397Z,117.75
2023-01-17T07:25:24.708Z,110.85
2023-01-17T07:27:50.020Z,104.97
2023-01-17T07:30:15.930Z,99.75
2023-01-17T07:32:40.914Z,98.28
2023-01-17T07:35:08.317Z,107.28
2023-01-17T07:37:32.932Z,96.50
2023-01-17T07:39:57.595Z,99.68
2023-01-17T07:42:24.040Z,95.97
2023-01-17T07:44:48.954Z,93.07
2023-01-17T07:47:13.441Z,101.35
2023-01-17T07:49:38.042Z,96.75
2023-01-17T07:52:03.896Z,96.40
2023-01-17T07:54:28.966Z,101.05
2023-01-17T07:56:53.715Z,95.10
2023-01-17T07:59:18.315Z,92.15
2023-01-17T08:01:44.042Z,90.90
2023-01-17T08:04:09.502Z,88.07
2023-01-17T08:06:34.398Z,85.03
2023-01-17T08:09:00.794Z,93.53
2023-01-17T08:11:25.858Z,114.55
2023-01-17T08:13:56.358Z,98.07
2023-01-17T08:16:21.037Z,134.27
2023-01-17T08:18:45.621Z,90.05
2023-01-17T08:21:16.993Z,85.22
2023-01-17T08:23:41.977Z,89.28
2023-01-17T08:26:08.926Z,92.82
2023-01-17T08:28:33.617Z,85.47
2023-01-17T08:30:58.262Z,98.78
2023-01-17T08:33:22.940Z,104.15
2023-01-17T08:35:53.760Z,90.40
2023-01-17T08:38:19.080Z,84.05
2023-01-17T08:40:47.471Z,91.55
2023-01-17T08:43:14.197Z,92.10
2023-01-17T08:45:41.747Z,91.88
2023-01-17T08:48:06.715Z,87.57
2023-01-17T08:50:32.988Z,82.85
2023-01-17T08:53:01.548Z,85.32
2023-01-17T08:55:27.339Z,75.85
2023-01-17T08:57:52.371Z,81.18
2023-01-17T09:00:19.932Z,86.40
2023-01-17T09:02:44.708Z,73.68
2023-01-17T09:05:09.741Z,83.22
2023-01-17T09:07:34.309Z,76.90
2023-01-17T09:09:59.091Z,81.93
2023-01-17T09:12:23.896Z,80.43
2023-01-17T09:14:48.580Z,76.78
2023-01-17T09:17:14.661Z,72.93
2023-01-17T09:19:44.705Z,74.03
2023-01-17T09:22:10.269Z,78.23
2023-01-17T09:24:34.969Z,75.22
2023-01-17T09:26:59.583Z,78.53
2023-01-17T09:29:24.215Z,82.20
2023-01-17T09:31:49.815Z,74.43
2023-01-17T09:34:16.382Z,69.15
2023-01-17T09:36:41.327Z,68.10
2023-01-17T09:39:08.353Z,77.10
2023-01-17T09:41:34.853Z,78.35
2023-01-17T09:44:08.162Z,77.00
2023-01-17T09:46:38.927Z,80.90
2023-01-17T09:49:09.446Z,65.55
2023-01-17T09:54:05.359Z,66.55
2023-01-17T09:59:18.548Z,66.28
2023-01-17T10:01:55.861Z,67.20
2023-01-17T10:04:42.955Z,60.95
2023-01-17T10:07:19.253Z,59.90
2023-01-17T10:10:02.977Z,65.15
2023-01-17T10:12:38.762Z,62.38
2023-01-17T10:15:26.520Z,64.15
2023-01-17T10:18:01.749Z,61.90
2023-01-17T10:20:47.732Z,60.05
2023-01-17T10:23:42.117Z,63.42
2023-01-17T10:26:11.437Z,63.05
2023-01-17T10:28:42.344Z,67.68
2023-01-17T10:31:10.010Z,62.05
2023-01-17T10:33:41.979Z,71.00
2023-01-17T10:36:13.197Z,60.90
2023-01-17T10:38:44.842Z,68.43
2023-01-17T10:41:15.187Z,64.43
2023-01-17T10:43:50.462Z,60.40
2023-01-17T10:46:20.986Z,64.82
2023-01-17T10:48:49.717Z,63.53
2023-01-17T10:51:28.352Z,63.20
2023-01-17T10:54:06.248Z,64.85
2023-01-17T10:56:32.033Z,62.42
2023-01-17T10:59:11.472Z,68.80
2023-01-17T11:01:36.640Z,92.20
2023-01-17T11:04:01.573Z,72.40
2023-01-17T11:06:28.784Z,68.63
2023-01-17T11:08:57.140Z,68.65
2023-01-17T11:11:24.388Z,62.47
2023-01-17T11:13:56.243Z,75.22
2023-01-17T11:16:26.739Z,57.80
2023-01-17T11:19:17.217Z,63.92
2023-01-17T11:21:50.302Z,65.95
2023-01-17T11:24:25.709Z,62.35
2023-01-17T11:26:51.080Z,60.40
2023-01-17T11:29:18.204Z,63.15
2023-01-17T11:31:44.852Z,65.60
2023-01-17T11:34:16.509Z,63.75
2023-01-17T11:36:41.151Z,56.80
2023-01-17T11:39:08.171Z,55.38
2023-01-17T11:41:39.553Z,53.17
2023-01-17T11:44:20.819Z,51.38
2023-01-17T11:46:45.481Z,49.05
2023-01-17T11:49:24.228Z,56.25
2023-01-17T11:51:48.858Z,53.45
2023-01-17T11:54:19.739Z,54.22
2023-01-17T11:56:46.505Z,49.72
2023-01-17T11:59:31.673Z,49.25
2023-01-17T12:02:32.064Z,50.85
2023-01-17T12:05:07.604Z,48.60
2023-01-17T12:07:46.118Z,47.90
2023-01-17T12:10:16.267Z,45.50
2023-01-17T12:13:12.486Z,45.17
2023-01-17T12:15:52.225Z,39.22
2023-01-17T12:18:32.077Z,35.40
2023-01-17T12:21:13.426Z,32.35
2023-01-17T12:24:03.693Z,30.25
2023-01-17T12:26:36.119Z,26.38
2023-01-17T12:29:42.864Z,25.70
2023-01-17T12:32:27.142Z,26.30
2023-01-17T12:34:56.209Z,23.77
2023-01-17T12:37:24.043Z,22.38
2023-01-17T12:39:56.479Z,29.67
2023-01-17T12:42:25.351Z,22.02
2023-01-17T12:44:58.717Z,26.33
2023-01-17T12:47:23.869Z,24.35
2023-01-17T12:49:57.925Z,25.15
2023-01-17T12:52:29.913Z,25.80
2023-01-17T12:54:59.837Z,28.25
2023-01-17T12:59:57.703Z,21.98
2023-01-17T13:02:32.469Z,21.38
2023-01-17T13:05:02.213Z,22.30
2023-01-17T13:07:38.478Z,22.75
2023-01-17T13:10:16.422Z,22.35
2023-01-17T13:12:41.620Z,23.33
2023-01-17T13:15:17.584Z,24.55
2023-01-17T13:17:46.955Z,19.38
2023-01-17T13:20:22.778Z,21.63
2023-01-17T13:22:48.442Z,25.67
2023-01-17T13:25:30.979Z,16.50
2023-01-17T13:28:15.664Z,13.73
2023-01-17T13:31:14.312Z,12.18
2023-01-17T13:33:54.833Z,10.32
2023-01-17T13:36:31.092Z,10.93
2023-01-17T13:39:08.906Z,11.23
2023-01-17T13:41:51.555Z,10.43
2023-01-17T13:44:23.352Z,10.88
2023-01-17T13:47:02.729Z,9.57
2023-01-17T13:49:44.327Z,7.40
2023-01-17T13:52:12.643Z,9.48
2023-01-17T13:54:45.093Z,11.77
2023-01-17T13:57:41.925Z,9.07
2023-01-17T14:00:43.922Z,13.27
2023-01-17T14:03:12.837Z,9.80
2023-01-17T14:06:00.125Z,13.65
2023-01-17T14:08:27.419Z,10.85
2023-01-17T14:10:55.000Z,10.68
2023-01-17T14:13:35.387Z,10.65
2023-01-17T14:16:00.215Z,9.63
2023-01-17T14:18:34.752Z,9.50
2023-01-17T14:21:14.232Z,10.65
2023-01-17T14:24:03.804Z,10.85
2023-01-17T14:26:48.540Z,12.45
2023-01-17T14:29:50.949Z,15.45
2023-01-17T14:32:18.323Z,17.40
2023-01-17T14:34:44.164Z,26.67
2023-01-17T14:37:19.731Z,31.48
2023-01-17T14:39:46.564Z,33.35
2023-01-17T14:42:14.185Z,39.97
2023-01-17T14:44:40.060Z,39.22
2023-01-17T14:47:04.698Z,40.92
2023-01-17T14:49:29.094Z,41.88
2023-01-17T14:52:04.175Z,44.10
2023-01-17T14:54:30.388Z,53.45
2023-01-17T14:57:15.506Z,46.50
2023-01-17T14:59:39.999Z,43.03
2023-01-17T15:02:08.635Z,46.85
2023-01-17T15:04:39.815Z,46.28
2023-01-17T15:07:05.351Z,47.70
2023-01-17T15:09:36.805Z,48.83
2023-01-17T15:12:02.799Z,50.50
2023-01-17T15:14:30.553Z,48.83
2023-01-17T15:16:55.517Z,48.85
2023-01-17T15:19:21.901Z,45.80
2023-01-17T15:21:50.696Z,52.53
2023-01-17T15:24:19.421Z,53.47
2023-01-17T15:26:46.067Z,55.67
2023-01-17T15:29:19.353Z,50.97
2023-01-17T15:31:46.113Z,53.58
2023-01-17T15:34:23.790Z,61.08
2023-01-17T15:36:50.056Z,57.75
2023-01-17T15:39:21.664Z,53.30
2023-01-17T15:41:52.015Z,67.53
2023-01-17T15:44:33.389Z,54.05
2023-01-17T15:47:23.076Z,68.82
2023-01-17T15:49:52.629Z,67.97
2023-01-17T15:52:17.596Z,64.50
2023-01-17T15:54:47.937Z,56.85
2023-01-17T15:57:24.649Z,64.20
2023-01-17T15:59:53.968Z,63.67
2023-01-17T16:02:30.883Z,64.18
2023-01-17T16:04:55.963Z,56.83
2023-01-17T16:07:22.636Z,52.38
2023-01-17T16:09:47.582Z,62.90
2023-01-17T16:12:12.407Z,60.88
2023-01-17T16:14:56.378Z,58.63
2023-01-17T16:17:23.569Z,61.17
2023-01-17T16:19:48.243Z,58.42
2023-01-17T16:22:12.759Z,58.70
2023-01-17T16:24:37.121Z,57.47
2023-01-17T16:27:01.567Z,57.55
2023-01-17T16:29:26.117Z,55.17
2023-01-17T16:31:51.993Z,55.28
2023-01-17T16:34:16.443Z,61.17
2023-01-17T16:36:41.035Z,56.20
2023-01-17T16:39:05.793Z,54.17
2023-01-17T16:41:30.211Z,59.08
2023-01-17T16:44:00.264Z,53.72
2023-01-17T16:46:27.104Z,53.65
2023-01-17T16:48:53.075Z,53.05
2023-01-17T16:51:19.308Z,56.13
2023-01-17T16:53:43.773Z,51.25
2023-01-17T16:56:13.718Z,51.28
2023-01-17T17:01:02.352Z,49.10
2023-01-17T17:03:26.998Z,48.95
2023-01-17T17:05:59.060Z,46.55
2023-01-17T17:08:24.306Z,49.10
2023-01-17T17:10:48.869Z,55.83
2023-01-17T17:13:13.418Z,55.85
2023-01-17T17:15:43.967Z,48.05
2023-01-17T17:18:13.083Z,61.70
2023-01-17T17:20:38.396Z,53.35
2023-01-17T17:23:04.526Z,60.50
2023-01-17T17:25:29.332Z,65.80
2023-01-17T17:27:54.151Z,67.22
2023-01-17T17:30:19.261Z,67.03
2023-01-17T17:32:47.757Z,83.40
2023-01-17T17:35:12.373Z,83.60
2023-01-17T17:37:37.509Z,101.65
2023-01-17T17:40:04.004Z,118.15
2023-01-17T17:42:28.734Z,103.78
2023-01-17T17:44:53.045Z,118.00
2023-01-17T17:47:18.046Z,107.95
2023-01-17T17:49:42.888Z,123.82
2023-01-17T17:52:08.891Z,121.10
2023-01-17T17:54:33.758Z,116.40
2023-01-17T17:56:59.721Z,129.40
2023-01-17T17:59:24.510Z,124.80
2023-01-17T18:01:50.010Z,127.57
2023-01-17T18:04:15.026Z,122.88
2023-01-17T18:06:40.003Z,120.18
2023-01-17T18:09:05.422Z,110.82
2023-01-17T18:11:30.778Z,124.63
2023-01-17T18:13:59.670Z,111.57
2023-01-17T18:16:26.540Z,108.85
2023-01-17T18:18:53.471Z,102.65
2023-01-17T18:21:23.758Z,95.00
2023-01-17T18:23:48.460Z,91.90
2023-01-17T18:26:20.941Z,87.10
2023-01-17T18:28:45.829Z,74.35
2023-01-17T18:31:11.811Z,80.80
2023-01-17T18:33:38.650Z,75.65
2023-01-17T18:36:04.798Z,73.25
2023-01-17T18:38:38.000Z,75.00
2023-01-17T18:41:04.140Z,77.10
2023-01-17T18:43:28.648Z,75.78
2023-01-17T18:45:54.504Z,68.95
2023-01-17T18:48:20.442Z,65.82
2023-01-17T18:50:45.146Z,68.82
2023-01-17T18:53:09.719Z,79.68
2023-01-17T18:55:34.340Z,76.72
2023-01-17T18:57:58.751Z,75.85
2023-01-17T19:00:24.411Z,76.88
2023-01-17T19:02:49.902Z,77.20
2023-01-17T19:05:18.032Z,81.40
2023-01-17T19:07:42.485Z,80.35
2023-01-17T19:10:08.101Z,86.15
2023-01-17T19:12:32.517Z,82.95
2023-01-17T19:14:57.291Z,90.88
2023-01-17T19:17:21.967Z,88.28
2023-01-17T19:19:46.448Z,89.97
2023-01-17T19:22:12.464Z,88.40
2023-01-17T19:24:38.450Z,89.80
2023-01-17T19:27:03.198Z,80.05
2023-01-17T19:29:27.795Z,88.65
2023-01-17T19:31:52.982Z,89.63
2023-01-17T19:34:19.649Z,81.93
2023-01-17T19:36:44.103Z,86.28
2023-01-17T19:39:11.196Z,84.00
2023-01-17T19:41:38.633Z,90.90
2023-01-17T19:44:05.430Z,87.70
2023-01-17T19:46:31.251Z,87.78
2023-01-17T19:48:56.559Z,92.63
2023-01-17T19:51:21.211Z,90.15
2023-01-17T19:53:46.393Z,93.80
2023-01-17T19:56:14.763Z,105.00
2023-01-17T19:58:40.409Z,105.72
2023-01-17T20:01:09.956Z,151.82
2023-01-17T20:03:34.575Z,116.20
2023-01-17T20:05:58.986Z,99.85
2023-01-17T20:08:23.713Z,89.00
2023-01-17T20:10:49.155Z,85.88
2023-01-17T20:13:15.273Z,84.82
2023-01-17T20:15:39.708Z,103.57
2023-01-17T20:18:04.316Z,96.05
2023-01-17T20:20:32.557Z,99.68
2023-01-17T20:22:57.172Z,93.72
2023-01-17T20:25:21.623Z,100.65
2023-01-17T20:27:46.026Z,102.30
2023-01-17T20:30:20.146Z,109.30
2023-01-17T20:32:45.982Z,117.75
2023-01-17T20:35:11.450Z,98.20
2023-01-17T20:37:37.259Z,81.03
2023-01-17T20:40:01.655Z,86.10
2023-01-17T20:42:27.870Z,90.38
2023-01-17T20:44:52.421Z,89.90
2023-01-17T20:47:18.294Z,90.32
2023-01-17T20:49:43.679Z,84.25
2023-01-17T20:52:08.407Z,92.25
2023-01-17T20:54:32.725Z,88.22
2023-01-17T20:56:57.327Z,95.40
2023-01-17T20:59:23.085Z,89.88
2023-01-17T21:01:47.817Z,91.88
2023-01-17T21:04:14.995Z,86.13
2023-01-17T21:06:41.038Z,79.50
2023-01-17T21:09:07.406Z,84.03
2023-01-17T21:11:32.065Z,73.80
2023-01-17T21:13:57.455Z,75.85
2023-01-17T21:16:24.061Z,78.70
2023-01-17T21:18:50.148Z,70.60
2023-01-17T21:21:18.271Z,72.35
2023-01-17T21:23:44.711Z,75.75
2023-01-17T21:26:10.962Z,82.43
2023-01-17T21:28:38.053Z,76.75
2023-01-17T21:31:07.225Z,77.93
2023-01-17T21:33:31.869Z,84.65
2023-01-17T21:35:56.420Z,76.72
2023-01-17T21:38:22.585Z,82.47
2023-01-17T21:40:47.175Z,86.32
2023-01-17T21:43:13.173Z,88.05
2023-01-17T21:45:38.494Z,84.85
2023-01-17T21:48:03.261Z,96.97
2023-01-17T21:50:33.276Z,92.18
2023-01-17T21:52:57.860Z,95.10
2023-01-17T21:55:41.575Z,98.85
2023-01-17T21:58:30.323Z,87.70
2023-01-17T22:01:08.222Z,87.32
2023-01-17T22:03:32.673Z,86.80
2023-01-17T22:05:57.267Z,93.25
2023-01-17T22:08:22.552Z,86.38
2023-01-17T22:10:48.393Z,83.03
2023-01-17T22:13:14.249Z,89.60
2023-01-17T22:15:38.702Z,84.03
2023-01-17T22:18:03.227Z,90.05
2023-01-17T22:20:30.678Z,85.07
2023-01-17T22:22:55.325Z,80.63
2023-01-17T22:25:20.079Z,76.45
2023-01-17T22:27:45.933Z,90.43
2023-01-17T22:30:13.099Z,80.10
2023-01-17T22:32:37.792Z,82.45
2023-01-17T22:35:02.277Z,78.38
2023-01-17T22:37:28.447Z,80.82
2023-01-17T22:39:52.965Z,71.80
2023-01-17T22:42:17.379Z,62.13
2023-01-17T22:44:43.256Z,73.78
2023-01-17T22:47:07.765Z,80.97
2023-01-17T22:49:32.169Z,75.00
2023-01-17T22:51:56.590Z,69.22
2023-01-17T22:54:21.114Z,69.90
2023-01-17T22:56:45.611Z,83.38
2023-01-17T22:59:11.783Z,68.53
2023-01-17T23:01:37.686Z,70.80
2023-01-17T23:04:03.954Z,76.80
2023-01-17T23:06:31.131Z,72.25
2023-01-17T23:08:58.384Z,68.50
2023-01-17T23:11:42.903Z,69.68
2023-01-17T23:14:08.750Z,75.45
2023-01-17T23:16:51.032Z,62.45
2023-01-17T23:19:23.450Z,57.33
2023-01-17T23:22:05.190Z,61.05
2023-01-17T23:24:29.572Z,59.30
2023-01-17T23:27:08.072Z,58.42
2023-01-17T23:29:32.494Z,51.17
2023-01-17T23:31:57.069Z,57.10
2023-01-17T23:34:23.193Z,50.45
2023-01-17T23:36:47.537Z,68.85
2023-01-17T23:39:12.004Z,57.45
2023-01-17T23:41:53.724Z,57.90
2023-01-17T23:44:18.329Z,46.70
2023-01-17T23:46:42.805Z,47.97
2023-01-17T23:49:07.201Z,54.58
2023-01-17T23:51:33.134Z,57.63
2023-01-17T23:54:05.472Z,53.22
2023-01-17T23:56:30.382Z,52.92
2023-01-17T23:58:55.028Z,55.45
